sensor_id;sensor_type;location;lat;lon;timestamp;pressure;altitude;pressure_sealevel;temperature;humidity
31183;BME280;17813;0.000;0.000;2023-05-23T00:37:51;99004.81;;;17.99;83.90
31183;BME280;17813;0.000;0.000;2023-05-23T00:40:22;99006.22;;;18.04;83.74
31183;BME280;17813;0.000;0.000;2023-05-23T00:42:49;99011.28;;;18.07;83.74
31183;BME280;17813;0.000;0.000;2023-05-23T00:45:17;99003.91;;;18.09;83.36
31183;BME280;17813;0.000;0.000;2023-05-23T00:47:45;99000.75;;;18.13;83.04
31183;BME280;17813;0.000;0.000;2023-05-23T00:50:13;98997.47;;;18.02;83.78
31183;BME280;17813;0.000;0.000;2023-05-23T00:52:43;98999.78;;;17.96;83.74
31183;BME280;17813;0.000;0.000;2023-05-23T00:55:12;98996.94;;;17.98;83.63
31183;BME280;17813;0.000;0.000;2023-05-23T00:57:40;99002.16;;;17.99;83.31
31183;BME280;17813;0.000;0.000;2023-05-23T01:00:13;99003.13;;;17.81;84.42
31183;BME280;17813;0.000;0.000;2023-05-23T01:02:45;99004.50;;;17.67;84.81
31183;BME280;17813;0.000;0.000;2023-05-23T01:05:15;99002.53;;;17.59;84.99
31183;BME280;17813;0.000;0.000;2023-05-23T01:07:49;99003.38;;;17.60;84.88
31183;BME280;17813;0.000;0.000;2023-05-23T01:10:20;98996.19;;;17.60;84.99
31183;BME280;17813;0.000;0.000;2023-05-23T01:15:54;98997.59;;;17.37;85.91
31183;BME280;17813;0.000;0.000;2023-05-23T01:21:17;98985.03;;;17.38;86.18
31183;BME280;17813;0.000;0.000;2023-05-23T01:29:26;98994.59;;;17.40;85.80
31183;BME280;17813;0.000;0.000;2023-05-23T01:31:56;98984.97;;;17.47;85.67
31183;BME280;17813;0.000;0.000;2023-05-23T01:34:24;98988.59;;;17.56;85.22
31183;BME280;17813;0.000;0.000;2023-05-23T01:36:54;98989.44;;;17.56;84.94
31183;BME280;17813;0.000;0.000;2023-05-23T03:39:25;99011.31;;;16.97;87.18
31183;BME280;17813;0.000;0.000;2023-05-23T03:41:54;99006.59;;;17.09;86.75
31183;BME280;17813;0.000;0.000;2023-05-23T03:44:22;99009.94;;;17.20;86.27
31183;BME280;17813;0.000;0.000;2023-05-23T03:46:55;99004.53;;;17.30;85.97
31183;BME280;17813;0.000;0.000;2023-05-23T03:49:23;99011.28;;;17.34;85.80
31183;BME280;17813;0.000;0.000;2023-05-23T03:51:50;99023.41;;;17.38;85.64
31183;BME280;17813;0.000;0.000;2023-05-23T03:54:17;99020.28;;;17.43;85.32
31183;BME280;17813;0.000;0.000;2023-05-23T03:56:44;99017.00;;;17.49;85.32
31183;BME280;17813;0.000;0.000;2023-05-23T03:59:11;99020.06;;;17.54;84.86
31183;BME280;17813;0.000;0.000;2023-05-23T04:01:39;99021.31;;;17.59;84.53
31183;BME280;17813;0.000;0.000;2023-05-23T04:04:06;99028.91;;;17.64;84.19
31183;BME280;17813;0.000;0.000;2023-05-23T04:06:33;99028.63;;;17.67;83.85
31183;BME280;17813;0.000;0.000;2023-05-23T04:09:01;99025.34;;;17.73;83.43
31183;BME280;17813;0.000;0.000;2023-05-23T04:11:28;99033.25;;;17.75;83.12
31183;BME280;17813;0.000;0.000;2023-05-23T04:13:58;99033.69;;;17.70;82.86
31183;BME280;17813;0.000;0.000;2023-05-23T04:16:25;99035.47;;;17.79;82.84
31183;BME280;17813;0.000;0.000;2023-05-23T04:18:52;99033.19;;;17.84;82.17
31183;BME280;17813;0.000;0.000;2023-05-23T04:21:19;99038.94;;;17.89;82.21
31183;BME280;17813;0.000;0.000;2023-05-23T04:23:46;99037.41;;;18.05;81.91
31183;BME280;17813;0.000;0.000;2023-05-23T04:26:13;99052.06;;;18.10;81.35
31183;BME280;17813;0.000;0.000;2023-05-23T04:28:40;99046.78;;;18.18;81.12
31183;BME280;17813;0.000;0.000;2023-05-23T04:31:12;99060.91;;;18.20;80.71
31183;BME280;17813;0.000;0.000;2023-05-23T04:33:39;99054.38;;;18.23;80.51
31183;BME280;17813;0.000;0.000;2023-05-23T04:36:07;99061.13;;;18.27;80.79
31183;BME280;17813;0.000;0.000;2023-05-23T04:38:35;99047.03;;;18.25;80.51
31183;BME280;17813;0.000;0.000;2023-05-23T04:41:07;99042.72;;;18.32;80.28
31183;BME280;17813;0.000;0.000;2023-05-23T04:43:37;99047.72;;;18.45;79.83
31183;BME280;17813;0.000;0.000;2023-05-23T04:46:11;99043.56;;;18.50;79.43
31183;BME280;17813;0.000;0.000;2023-05-23T04:48:39;99049.00;;;18.58;79.44
31183;BME280;17813;0.000;0.000;2023-05-23T04:51:08;99056.06;;;18.59;79.15
31183;BME280;17813;0.000;0.000;2023-05-23T04:53:37;99054.00;;;18.71;79.14
31183;BME280;17813;0.000;0.000;2023-05-23T04:56:07;99052.94;;;18.90;78.41
31183;BME280;17813;0.000;0.000;2023-05-23T04:58:34;99058.75;;;19.03;78.04
31183;BME280;17813;0.000;0.000;2023-05-23T05:01:01;99052.94;;;19.16;77.41
31183;BME280;17813;0.000;0.000;2023-05-23T05:03:29;99054.06;;;19.39;77.20
31183;BME280;17813;0.000;0.000;2023-05-23T05:05:57;99059.56;;;19.55;76.69
31183;BME280;17813;0.000;0.000;2023-05-23T05:08:25;99062.97;;;19.66;75.91
31183;BME280;17813;0.000;0.000;2023-05-23T05:10:53;99057.13;;;19.86;75.29
31183;BME280;17813;0.000;0.000;2023-05-23T05:13:20;99055.53;;;20.26;74.68
31183;BME280;17813;0.000;0.000;2023-05-23T05:15:47;99058.13;;;20.52;73.26
31183;BME280;17813;0.000;0.000;2023-05-23T05:18:21;99059.28;;;20.49;72.20
31183;BME280;17813;0.000;0.000;2023-05-23T05:20:53;99071.69;;;20.34;72.73
31183;BME280;17813;0.000;0.000;2023-05-23T05:23:27;99075.31;;;19.92;72.70
31183;BME280;17813;0.000;0.000;2023-05-23T05:25:55;99082.63;;;19.66;73.38
31183;BME280;17813;0.000;0.000;2023-05-23T05:28:26;99080.56;;;19.26;73.69
31183;BME280;17813;0.000;0.000;2023-05-23T05:30:53;99082.25;;;19.01;74.46
31183;BME280;17813;0.000;0.000;2023-05-23T05:33:23;99083.25;;;19.00;74.95
31183;BME280;17813;0.000;0.000;2023-05-23T05:35:51;99094.38;;;19.05;75.08
31183;BME280;17813;0.000;0.000;2023-05-23T05:38:21;99088.69;;;19.08;75.17
31183;BME280;17813;0.000;0.000;2023-05-23T06:39:33;99099.84;;;19.21;73.85
31183;BME280;17813;0.000;0.000;2023-05-23T06:42:02;99095.88;;;19.34;73.01
31183;BME280;17813;0.000;0.000;2023-05-23T06:44:30;99107.72;;;19.49;72.40
31183;BME280;17813;0.000;0.000;2023-05-23T06:46:57;99103.03;;;19.51;72.11
31183;BME280;17813;0.000;0.000;2023-05-23T06:49:27;99113.66;;;19.52;71.61
31183;BME280;17813;0.000;0.000;2023-05-23T06:51:54;99108.66;;;19.57;71.79
31183;BME280;17813;0.000;0.000;2023-05-23T06:54:22;99113.72;;;19.61;71.20
31183;BME280;17813;0.000;0.000;2023-05-23T06:57:01;99105.44;;;19.54;71.32
31183;BME280;17813;0.000;0.000;2023-05-23T06:59:28;99114.72;;;19.59;71.21
31183;BME280;17813;0.000;0.000;2023-05-23T07:01:55;99115.94;;;19.13;70.97
31183;BME280;17813;0.000;0.000;2023-05-23T07:04:24;99128.63;;;19.03;70.68
31183;BME280;17813;0.000;0.000;2023-05-23T07:06:52;99120.88;;;19.00;70.51
31183;BME280;17813;0.000;0.000;2023-05-23T07:09:19;99123.44;;;18.84;70.37
31183;BME280;17813;0.000;0.000;2023-05-23T07:11:46;99139.00;;;18.98;69.98
31183;BME280;17813;0.000;0.000;2023-05-23T07:14:14;99136.94;;;18.92;69.73
31183;BME280;17813;0.000;0.000;2023-05-23T07:16:44;99147.53;;;18.93;69.25
31183;BME280;17813;0.000;0.000;2023-05-23T07:19:14;99152.97;;;18.84;69.27
31183;BME280;17813;0.000;0.000;2023-05-23T07:21:41;99156.59;;;18.75;69.27
31183;BME280;17813;0.000;0.000;2023-05-23T07:24:12;99156.41;;;18.41;70.39
31183;BME280;17813;0.000;0.000;2023-05-23T07:26:40;99159.00;;;18.33;70.65
31183;BME280;17813;0.000;0.000;2023-05-23T07:29:08;99159.63;;;18.17;70.79
31183;BME280;17813;0.000;0.000;2023-05-23T07:31:35;99158.25;;;18.13;71.18
31183;BME280;17813;0.000;0.000;2023-05-23T07:34:06;99152.34;;;18.09;70.57
31183;BME280;17813;0.000;0.000;2023-05-23T07:36:39;99156.03;;;18.08;70.20
31183;BME280;17813;0.000;0.000;2023-05-23T07:39:08;99163.28;;;18.25;69.52
31183;BME280;17813;0.000;0.000;2023-05-23T07:41:37;99156.72;;;18.38;68.99
31183;BME280;17813;0.000;0.000;2023-05-23T07:44:05;99160.16;;;18.48;68.23
31183;BME280;17813;0.000;0.000;2023-05-23T07:46:35;99155.94;;;18.45;68.04
31183;BME280;17813;0.000;0.000;2023-05-23T07:49:04;99159.78;;;18.60;67.56
31183;BME280;17813;0.000;0.000;2023-05-23T07:51:35;99156.75;;;18.73;67.20
31183;BME280;17813;0.000;0.000;2023-05-23T07:54:08;99152.28;;;18.82;66.33
31183;BME280;17813;0.000;0.000;2023-05-23T07:56:37;99142.38;;;19.00;65.91
31183;BME280;17813;0.000;0.000;2023-05-23T07:59:05;99148.81;;;19.33;65.35
31183;BME280;17813;0.000;0.000;2023-05-23T08:01:32;99139.59;;;19.62;63.86
31183;BME280;17813;0.000;0.000;2023-05-23T08:04:10;99156.03;;;19.84;62.61
31183;BME280;17813;0.000;0.000;2023-05-23T08:06:39;99150.25;;;20.13;61.90
31183;BME280;17813;0.000;0.000;2023-05-23T08:09:07;99152.03;;;20.39;61.65
31183;BME280;17813;0.000;0.000;2023-05-23T08:11:49;99154.41;;;20.58;61.30
31183;BME280;17813;0.000;0.000;2023-05-23T08:14:28;99156.16;;;20.92;58.16
31183;BME280;17813;0.000;0.000;2023-05-23T08:16:58;99151.94;;;21.05;58.75
31183;BME280;17813;0.000;0.000;2023-05-23T08:19:30;99157.75;;;21.74;57.95
31183;BME280;17813;0.000;0.000;2023-05-23T08:21:59;99164.31;;;22.27;56.52
31183;BME280;17813;0.000;0.000;2023-05-23T08:24:31;99162.50;;;22.19;55.08
31183;BME280;17813;0.000;0.000;2023-05-23T08:27:04;99159.69;;;21.96;55.61
31183;BME280;17813;0.000;0.000;2023-05-23T08:29:33;99167.25;;;21.62;56.51
31183;BME280;17813;0.000;0.000;2023-05-23T08:32:04;99158.69;;;21.34;56.50
31183;BME280;17813;0.000;0.000;2023-05-23T08:34:32;99163.44;;;21.24;56.64
31183;BME280;17813;0.000;0.000;2023-05-23T08:37:00;99169.31;;;21.11;55.84
31183;BME280;17813;0.000;0.000;2023-05-23T08:39:28;99175.38;;;21.13;55.36
31183;BME280;17813;0.000;0.000;2023-05-23T08:41:56;99172.66;;;21.13;54.88
31183;BME280;17813;0.000;0.000;2023-05-23T08:44:24;99173.38;;;21.31;55.28
31183;BME280;17813;0.000;0.000;2023-05-23T08:46:53;99175.19;;;21.47;55.30
31183;BME280;17813;0.000;0.000;2023-05-23T08:49:22;99180.47;;;21.88;53.82
31183;BME280;17813;0.000;0.000;2023-05-23T08:51:51;99186.13;;;22.17;54.11
31183;BME280;17813;0.000;0.000;2023-05-23T08:54:21;99180.28;;;23.73;52.83
31183;BME280;17813;0.000;0.000;2023-05-23T08:56:53;99189.38;;;24.82;48.10
31183;BME280;17813;0.000;0.000;2023-05-23T08:59:23;99196.31;;;25.06;47.21
31183;BME280;17813;0.000;0.000;2023-05-23T09:51:10;99221.09;;;19.80;56.93
31183;BME280;17813;0.000;0.000;2023-05-23T09:53:38;99224.34;;;20.26;56.98
31183;BME280;17813;0.000;0.000;2023-05-23T09:56:09;99212.81;;;20.49;55.50
31183;BME280;17813;0.000;0.000;2023-05-23T09:58:47;99207.69;;;20.80;54.18
31183;BME280;17813;0.000;0.000;2023-05-23T10:01:15;99212.28;;;20.96;53.80
31183;BME280;17813;0.000;0.000;2023-05-23T10:03:51;99221.31;;;20.79;53.98
31183;BME280;17813;0.000;0.000;2023-05-23T10:06:49;99217.75;;;20.70;54.64
31183;BME280;17813;0.000;0.000;2023-05-23T10:09:24;99219.91;;;20.59;54.96
31183;BME280;17813;0.000;0.000;2023-05-23T10:15:04;99230.38;;;20.62;54.44
31183;BME280;17813;0.000;0.000;2023-05-23T10:18:05;99231.16;;;20.46;54.89
31183;BME280;17813;0.000;0.000;2023-05-23T10:20:35;99237.75;;;20.51;55.64
31183;BME280;17813;0.000;0.000;2023-05-23T10:23:06;99234.56;;;20.56;55.41
31183;BME280;17813;0.000;0.000;2023-05-23T10:25:37;99241.50;;;20.24;55.49
31183;BME280;17813;0.000;0.000;2023-05-23T10:28:05;99234.69;;;20.46;55.79
31183;BME280;17813;0.000;0.000;2023-05-23T10:30:34;99243.03;;;20.77;55.30
31183;BME280;17813;0.000;0.000;2023-05-23T10:33:05;99230.28;;;20.96;54.88
31183;BME280;17813;0.000;0.000;2023-05-23T10:36:03;99235.00;;;20.85;54.91
31183;BME280;17813;0.000;0.000;2023-05-23T10:38:44;99243.31;;;21.25;54.75
31183;BME280;17813;0.000;0.000;2023-05-23T10:41:32;99237.03;;;21.81;54.10
31183;BME280;17813;0.000;0.000;2023-05-23T10:46:58;99244.81;;;22.70;52.26
31183;BME280;17813;0.000;0.000;2023-05-23T10:49:44;99246.03;;;22.60;50.60
31183;BME280;17813;0.000;0.000;2023-05-23T10:52:18;99252.22;;;22.37;50.89
31183;BME280;17813;0.000;0.000;2023-05-23T10:54:50;99257.75;;;21.89;51.57
31183;BME280;17813;0.000;0.000;2023-05-23T10:57:25;99258.66;;;21.65;52.55
31183;BME280;17813;0.000;0.000;2023-05-23T11:00:04;99261.53;;;21.31;53.62
31183;BME280;17813;0.000;0.000;2023-05-23T11:02:52;99267.19;;;20.87;54.50
31183;BME280;17813;0.000;0.000;2023-05-23T11:05:24;99271.78;;;20.61;56.04
31183;BME280;17813;0.000;0.000;2023-05-23T11:08:12;99274.81;;;20.23;56.80
31183;BME280;17813;0.000;0.000;2023-05-23T11:11:03;99275.16;;;19.95;57.48
31183;BME280;17813;0.000;0.000;2023-05-23T11:13:55;99276.78;;;19.62;58.47
31183;BME280;17813;0.000;0.000;2023-05-23T11:16:26;99286.38;;;19.64;58.71
31183;BME280;17813;0.000;0.000;2023-05-23T11:24:18;99272.19;;;19.54;59.67
31183;BME280;17813;0.000;0.000;2023-05-23T11:30:20;99290.47;;;19.33;60.84
31183;BME280;17813;0.000;0.000;2023-05-23T11:32:53;99287.72;;;19.24;61.20
31183;BME280;17813;0.000;0.000;2023-05-23T11:35:25;99279.13;;;19.21;62.27
31183;BME280;17813;0.000;0.000;2023-05-23T11:37:52;99283.41;;;19.32;62.05
31183;BME280;17813;0.000;0.000;2023-05-23T11:40:37;99281.72;;;19.31;62.36
31183;BME280;17813;0.000;0.000;2023-05-23T11:43:08;99278.78;;;19.42;62.44
31183;BME280;17813;0.000;0.000;2023-05-23T11:45:44;99272.09;;;19.64;61.74
31183;BME280;17813;0.000;0.000;2023-05-23T11:48:17;99270.09;;;19.91;61.52
31183;BME280;17813;0.000;0.000;2023-05-23T11:50:54;99262.50;;;20.21;61.42
31183;BME280;17813;0.000;0.000;2023-05-23T11:53:25;99271.41;;;20.47;59.96
31183;BME280;17813;0.000;0.000;2023-05-23T11:56:00;99267.22;;;20.53;58.98
31183;BME280;17813;0.000;0.000;2023-05-23T11:58:49;99270.66;;;20.37;59.27
31183;BME280;17813;0.000;0.000;2023-05-23T12:01:29;99272.06;;;20.41;59.13
31183;BME280;17813;0.000;0.000;2023-05-23T12:03:58;99279.38;;;20.31;59.32
31183;BME280;17813;0.000;0.000;2023-05-23T12:06:26;99273.81;;;20.24;59.25
31183;BME280;17813;0.000;0.000;2023-05-23T12:08:53;99272.06;;;20.15;59.59
31183;BME280;17813;0.000;0.000;2023-05-23T12:11:22;99275.78;;;20.14;59.40
31183;BME280;17813;0.000;0.000;2023-05-23T12:14:15;99280.50;;;19.86;59.83
31183;BME280;17813;0.000;0.000;2023-05-23T12:16:44;99277.75;;;19.78;60.00
31183;BME280;17813;0.000;0.000;2023-05-23T12:19:18;99267.72;;;19.63;60.57
31183;BME280;17813;0.000;0.000;2023-05-23T12:21:48;99269.88;;;19.59;60.45
31183;BME280;17813;0.000;0.000;2023-05-23T12:24:27;99278.56;;;19.53;60.67
31183;BME280;17813;0.000;0.000;2023-05-23T12:27:10;99276.34;;;19.31;61.96
31183;BME280;17813;0.000;0.000;2023-05-23T12:29:38;99282.88;;;19.28;62.08
31183;BME280;17813;0.000;0.000;2023-05-23T12:32:06;99278.66;;;18.90;64.19
31183;BME280;17813;0.000;0.000;2023-05-23T12:34:40;99285.88;;;18.89;63.86
31183;BME280;17813;0.000;0.000;2023-05-23T12:37:12;99292.44;;;18.77;64.70
31183;BME280;17813;0.000;0.000;2023-05-23T12:39:44;99283.69;;;18.75;64.43
31183;BME280;17813;0.000;0.000;2023-05-23T14:44:20;99385.25;;;17.38;63.84
31183;BME280;17813;0.000;0.000;2023-05-23T14:46:47;99388.63;;;17.30;63.73
31183;BME280;17813;0.000;0.000;2023-05-23T14:49:16;99400.00;;;17.03;64.65
31183;BME280;17813;0.000;0.000;2023-05-23T14:51:45;99396.16;;;16.87;65.23
31183;BME280;17813;0.000;0.000;2023-05-23T14:54:13;99403.22;;;16.88;65.15
31183;BME280;17813;0.000;0.000;2023-05-23T14:56:41;99406.91;;;16.96;64.98
31183;BME280;17813;0.000;0.000;2023-05-23T14:59:11;99408.13;;;16.83;65.58
31183;BME280;17813;0.000;0.000;2023-05-23T15:02:01;99401.50;;;16.77;65.44
31183;BME280;17813;0.000;0.000;2023-05-23T15:04:31;99415.72;;;16.78;65.87
31183;BME280;17813;0.000;0.000;2023-05-23T15:07:03;99412.59;;;16.73;66.16
31183;BME280;17813;0.000;0.000;2023-05-23T15:09:34;99416.97;;;16.74;65.70
31183;BME280;17813;0.000;0.000;2023-05-23T15:12:02;99415.56;;;16.69;66.31
31183;BME280;17813;0.000;0.000;2023-05-23T15:14:31;99415.88;;;16.76;65.97
31183;BME280;17813;0.000;0.000;2023-05-23T15:16:58;99427.97;;;16.70;66.39
31183;BME280;17813;0.000;0.000;2023-05-23T15:19:35;99421.63;;;16.71;66.38
31183;BME280;17813;0.000;0.000;2023-05-23T15:22:04;99428.09;;;16.69;66.75
31183;BME280;17813;0.000;0.000;2023-05-23T15:24:32;99420.06;;;16.48;68.77
31183;BME280;17813;0.000;0.000;2023-05-23T15:27:14;99427.78;;;16.42;70.18
31183;BME280;17813;0.000;0.000;2023-05-23T15:29:53;99429.44;;;16.33;70.94
31183;BME280;17813;0.000;0.000;2023-05-23T15:32:20;99426.84;;;16.22;72.08
31183;BME280;17813;0.000;0.000;2023-05-23T15:34:48;99424.56;;;16.17;73.17
31183;BME280;17813;0.000;0.000;2023-05-23T15:37:17;99426.69;;;16.23;72.66
31183;BME280;17813;0.000;0.000;2023-05-23T15:39:46;99425.31;;;16.29;72.32
31183;BME280;17813;0.000;0.000;2023-05-23T15:42:14;99430.56;;;16.30;72.23
31183;BME280;17813;0.000;0.000;2023-05-23T15:44:41;99429.84;;;16.28;72.62
31183;BME280;17813;0.000;0.000;2023-05-23T15:47:08;99426.56;;;16.25;72.27
31183;BME280;17813;0.000;0.000;2023-05-23T15:49:36;99434.16;;;16.20;71.62
31183;BME280;17813;0.000;0.000;2023-05-23T15:52:03;99434.47;;;16.05;71.67
31183;BME280;17813;0.000;0.000;2023-05-23T15:54:30;99430.81;;;15.86;71.81
31183;BME280;17813;0.000;0.000;2023-05-23T15:56:57;99436.53;;;15.81;71.93
31183;BME280;17813;0.000;0.000;2023-05-23T15:59:25;99424.66;;;15.74;71.88
31183;BME280;17813;0.000;0.000;2023-05-23T16:01:52;99442.88;;;15.80;71.08
31183;BME280;17813;0.000;0.000;2023-05-23T16:04:19;99436.84;;;15.67;71.24
31183;BME280;17813;0.000;0.000;2023-05-23T16:06:47;99435.63;;;15.71;71.04
31183;BME280;17813;0.000;0.000;2023-05-23T16:09:14;99435.22;;;15.75;71.07
31183;BME280;17813;0.000;0.000;2023-05-23T16:11:41;99439.00;;;15.73;71.08
31183;BME280;17813;0.000;0.000;2023-05-23T16:14:08;99441.16;;;15.79;70.69
31183;BME280;17813;0.000;0.000;2023-05-23T16:16:35;99445.53;;;15.80;70.50
31183;BME280;17813;0.000;0.000;2023-05-23T16:19:02;99447.13;;;15.83;70.88
31183;BME280;17813;0.000;0.000;2023-05-23T16:21:30;99439.09;;;15.83;70.37
31183;BME280;17813;0.000;0.000;2023-05-23T16:23:57;99452.63;;;15.70;70.87
31183;BME280;17813;0.000;0.000;2023-05-23T16:26:24;99457.38;;;15.66;70.77
31183;BME280;17813;0.000;0.000;2023-05-23T16:28:52;99452.31;;;15.63;70.79
31183;BME280;17813;0.000;0.000;2023-05-23T16:31:25;99452.56;;;15.60;69.89
31183;BME280;17813;0.000;0.000;2023-05-23T16:33:53;99459.59;;;15.61;70.46
31183;BME280;17813;0.000;0.000;2023-05-23T16:36:20;99455.81;;;15.64;70.29
31183;BME280;17813;0.000;0.000;2023-05-23T16:38:51;99457.91;;;15.60;70.00
31183;BME280;17813;0.000;0.000;2023-05-23T16:41:19;99469.09;;;15.32;70.51
31183;BME280;17813;0.000;0.000;2023-05-23T16:43:55;99475.28;;;15.32;70.74
31183;BME280;17813;0.000;0.000;2023-05-23T16:46:22;99479.41;;;15.36;70.39
31183;BME280;17813;0.000;0.000;2023-05-23T16:48:49;99481.34;;;15.34;70.45
31183;BME280;17813;0.000;0.000;2023-05-23T16:51:16;99479.41;;;15.36;70.65
31183;BME280;17813;0.000;0.000;2023-05-23T16:53:43;99491.03;;;15.47;69.85
31183;BME280;17813;0.000;0.000;2023-05-23T16:56:10;99487.78;;;15.43;70.22
31183;BME280;17813;0.000;0.000;2023-05-23T16:58:40;99471.78;;;15.21;69.88
31183;BME280;17813;0.000;0.000;2023-05-23T17:01:13;99483.44;;;15.20;70.38
31183;BME280;17813;0.000;0.000;2023-05-23T17:03:42;99488.19;;;15.16;70.26
31183;BME280;17813;0.000;0.000;2023-05-23T17:06:18;99486.84;;;15.10;70.11
31183;BME280;17813;0.000;0.000;2023-05-23T17:08:45;99490.38;;;15.11;69.82
31183;BME280;17813;0.000;0.000;2023-05-23T17:11:18;99501.78;;;15.02;70.29
31183;BME280;17813;0.000;0.000;2023-05-23T17:13:47;99498.28;;;15.01;70.41
31183;BME280;17813;0.000;0.000;2023-05-23T17:16:15;99496.94;;;14.96;70.56
31183;BME280;17813;0.000;0.000;2023-05-23T17:18:44;99506.78;;;14.95;70.19
31183;BME280;17813;0.000;0.000;2023-05-23T17:21:12;99511.03;;;14.87;70.19
31183;BME280;17813;0.000;0.000;2023-05-23T17:23:39;99510.03;;;14.88;70.19
31183;BME280;17813;0.000;0.000;2023-05-23T17:26:14;99517.31;;;14.74;70.40
31183;BME280;17813;0.000;0.000;2023-05-23T17:28:43;99521.81;;;14.74;70.31
31183;BME280;17813;0.000;0.000;2023-05-23T17:31:13;99525.81;;;14.68;70.29
31183;BME280;17813;0.000;0.000;2023-05-23T17:33:54;99533.31;;;14.63;70.33
31183;BME280;17813;0.000;0.000;2023-05-23T17:36:26;99533.69;;;14.59;70.74
31183;BME280;17813;0.000;0.000;2023-05-23T17:38:59;99532.81;;;14.58;71.11
31183;BME280;17813;0.000;0.000;2023-05-23T17:41:31;99534.75;;;14.56;71.52
31183;BME280;17813;0.000;0.000;2023-05-23T17:43:58;99531.38;;;14.54;71.55
31183;BME280;17813;0.000;0.000;2023-05-23T17:46:27;99539.88;;;14.59;71.76
31183;BME280;17813;0.000;0.000;2023-05-23T17:48:55;99542.88;;;14.43;73.14
31183;BME280;17813;0.000;0.000;2023-05-23T17:51:21;99553.13;;;14.37;74.39
31183;BME280;17813;0.000;0.000;2023-05-23T17:53:49;99553.13;;;14.37;73.91
31183;BME280;17813;0.000;0.000;2023-05-23T17:56:32;99551.78;;;14.31;74.41
31183;BME280;17813;0.000;0.000;2023-05-23T17:59:03;99557.44;;;14.27;74.46
31183;BME280;17813;0.000;0.000;2023-05-23T18:01:33;99549.06;;;14.20;75.02
31183;BME280;17813;0.000;0.000;2023-05-23T18:04:03;99550.84;;;14.08;75.52
31183;BME280;17813;0.000;0.000;2023-05-23T18:06:32;99556.06;;;14.10;75.58
31183;BME280;17813;0.000;0.000;2023-05-23T18:09:00;99561.72;;;14.05;74.87
31183;BME280;17813;0.000;0.000;2023-05-23T18:11:31;99572.56;;;13.91;75.30
31183;BME280;17813;0.000;0.000;2023-05-23T18:13:58;99573.94;;;13.97;75.15
31183;BME280;17813;0.000;0.000;2023-05-23T18:16:26;99566.63;;;13.88;75.15
31183;BME280;17813;0.000;0.000;2023-05-23T18:18:54;99574.38;;;13.91;74.48
31183;BME280;17813;0.000;0.000;2023-05-23T18:21:24;99577.16;;;13.89;74.58
31183;BME280;17813;0.000;0.000;2023-05-23T18:23:55;99575.34;;;13.90;74.03
31183;BME280;17813;0.000;0.000;2023-05-23T18:26:29;99581.13;;;13.83;74.01
31183;BME280;17813;0.000;0.000;2023-05-23T18:29:07;99582.63;;;13.88;73.44
31183;BME280;17813;0.000;0.000;2023-05-23T18:31:39;99578.97;;;13.89;72.93
31183;BME280;17813;0.000;0.000;2023-05-23T18:34:06;99589.03;;;13.85;72.82
31183;BME280;17813;0.000;0.000;2023-05-23T18:36:33;99594.97;;;13.89;72.12
31183;BME280;17813;0.000;0.000;2023-05-23T18:39:08;99593.06;;;13.91;72.07
31183;BME280;17813;0.000;0.000;2023-05-23T18:41:43;99594.88;;;13.90;71.76
31183;BME280;17813;0.000;0.000;2023-05-23T18:44:23;99601.03;;;13.91;71.44
31183;BME280;17813;0.000;0.000;2023-05-23T18:46:54;99605.34;;;13.80;71.25
31183;BME280;17813;0.000;0.000;2023-05-23T18:49:22;99611.09;;;13.87;70.25
31183;BME280;17813;0.000;0.000;2023-05-23T18:51:49;99610.56;;;13.82;70.70
31183;BME280;17813;0.000;0.000;2023-05-23T18:54:17;99615.78;;;13.83;70.33
31183;BME280;17813;0.000;0.000;2023-05-23T18:56:53;99610.34;;;13.85;70.58
31183;BME280;17813;0.000;0.000;2023-05-23T18:59:24;99625.25;;;13.88;70.72
31183;BME280;17813;0.000;0.000;2023-05-23T19:02:00;99621.31;;;13.93;70.37
31183;BME280;17813;0.000;0.000;2023-05-23T19:04:40;99626.63;;;13.93;69.77
31183;BME280;17813;0.000;0.000;2023-05-23T19:07:08;99636.00;;;13.99;69.93
31183;BME280;17813;0.000;0.000;2023-05-23T19:09:34;99644.75;;;14.01;69.49
31183;BME280;17813;0.000;0.000;2023-05-23T19:12:01;99646.78;;;13.97;69.14
31183;BME280;17813;0.000;0.000;2023-05-23T19:14:33;99647.50;;;13.99;69.48
31183;BME280;17813;0.000;0.000;2023-05-23T19:17:12;99658.41;;;13.96;69.15
31183;BME280;17813;0.000;0.000;2023-05-23T19:19:56;99653.19;;;13.95;69.09
31183;BME280;17813;0.000;0.000;2023-05-23T19:22:27;99663.50;;;13.99;69.08
31183;BME280;17813;0.000;0.000;2023-05-23T19:24:57;99661.69;;;14.00;68.92
31183;BME280;17813;0.000;0.000;2023-05-23T19:27:24;99667.16;;;13.98;68.64
31183;BME280;17813;0.000;0.000;2023-05-23T19:29:53;99659.03;;;14.00;68.83
31183;BME280;17813;0.000;0.000;2023-05-23T19:32:23;99662.44;;;14.02;68.42
31183;BME280;17813;0.000;0.000;2023-05-23T19:34:52;99663.91;;;14.06;68.48
31183;BME280;17813;0.000;0.000;2023-05-23T19:37:27;99659.16;;;13.98;68.32
31183;BME280;17813;0.000;0.000;2023-05-23T19:39:54;99655.28;;;14.02;68.01
31183;BME280;17813;0.000;0.000;2023-05-23T19:42:25;99662.44;;;14.02;67.82
31183;BME280;17813;0.000;0.000;2023-05-23T19:44:52;99654.78;;;13.97;67.99
31183;BME280;17813;0.000;0.000;2023-05-23T19:47:20;99663.41;;;14.01;67.91
31183;BME280;17813;0.000;0.000;2023-05-23T19:49:47;99654.31;;;14.03;67.86
31183;BME280;17813;0.000;0.000;2023-05-23T19:52:15;99665.00;;;14.03;67.30
31183;BME280;17813;0.000;0.000;2023-05-23T19:54:44;99666.63;;;13.93;67.54
31183;BME280;17813;0.000;0.000;2023-05-23T19:57:18;99660.34;;;13.94;67.23
31183;BME280;17813;0.000;0.000;2023-05-23T19:59:45;99667.38;;;13.95;67.51
31183;BME280;17813;0.000;0.000;2023-05-23T20:02:16;99667.16;;;13.98;67.19
31183;BME280;17813;0.000;0.000;2023-05-23T20:04:49;99669.81;;;13.98;66.84
31183;BME280;17813;0.000;0.000;2023-05-23T20:07:17;99672.81;;;13.94;67.19
31183;BME280;17813;0.000;0.000;2023-05-23T20:09:44;99675.16;;;13.98;66.96
31183;BME280;17813;0.000;0.000;2023-05-23T20:12:11;99673.31;;;13.99;66.72
31183;BME280;17813;0.000;0.000;2023-05-23T20:14:38;99678.03;;;13.95;67.09
31183;BME280;17813;0.000;0.000;2023-05-23T20:17:05;99673.78;;;13.93;66.69
31183;BME280;17813;0.000;0.000;2023-05-23T20:19:34;99680.69;;;13.95;66.49
31183;BME280;17813;0.000;0.000;2023-05-23T20:22:01;99698.22;;;13.87;66.68